Hovedside
METAR-TAF:

METAR-TAF

Lufthavner :

Såtenäs, Sverige

breddegrad: 58-26N, lengdegrad: 012-42E, høyde over havet: 54 m

Gjeldene værobservasjon

Denne rapporten ble laget for 39 minutter siden, klokken 19:50 UTC
Vind 2 kt fra Sørøst
Temperatur 2°C
Luftfuktighet 100%
Trykk 1015 hPa
Sikt: 5000 m
Få skyer i en høyde av 2600 ft
tåkebanker

METAR: ESIB 141950Z 13002KT 5000 R01/0900V1900U R19/1500VP2000N BCFG FEW026 02/02 Q1015

Tid: 21:29 (20:29 UTC)

Varsel

Denne rapporten ble laget for 2 timer og 59 minutter siden, klokken 17:30 UTC
Varsel gyldig fra 14. klokken 18 UTC til 14. klokken 21 UTC
Vind 6 kt fra Øst-sørøst
Sikt 10 km eller mer
Spredte skyer i en høyde av 900 ft
Midlertidig
fra 14. klokken 18 UTC til 14. klokken 21 UTC
Sikt: 0500 m
i en høyde av 100 ft
tåke

TAF: ESIB 141730Z 1418/1421 11006KT 9999 NSW SCT009 TEMPO 1418/1421 0500 FG VV001 RMK MIL

Værobservasjoner og værvarsel for over 4000 flyplasser (METAR- og TAF-rapporter).

Tilgjengelige stasjoner er representert av de røde og gule prikkene på kartet.

Hold musepekeren over prikken for å se navnet på stasjonen.

Klikk så for å se værobservasjoner og -varsler.

For å forandre kartet kan du klikke på den grønne knappen med svart kryss for å zoome inn, på den grønne knappen med strek for å zoome ut, eller på de grønne pilene for å se tilstøtende kart.


METAR-TAF: